sensor_id;sensor_type;location;lat;lon;timestamp;pressure;altitude;pressure_sealevel;temperature;humidity
43503;BME280;29098;48.184;16.298;2022-11-20T00:01:37;98992.34;;;0.93;96.22
43503;BME280;29098;48.184;16.298;2022-11-20T00:04:03;98988.13;;;0.92;96.70
43503;BME280;29098;48.184;16.298;2022-11-20T00:06:28;98980.84;;;0.86;96.63
43503;BME280;29098;48.184;16.298;2022-11-20T00:08:54;98982.81;;;0.93;96.57
43503;BME280;29098;48.184;16.298;2022-11-20T00:11:21;98986.22;;;0.94;96.57
43503;BME280;29098;48.184;16.298;2022-11-20T00:13:48;98988.88;;;0.82;96.79
43503;BME280;29098;48.184;16.298;2022-11-20T00:16:14;98985.78;;;0.89;96.64
43503;BME280;29098;48.184;16.298;2022-11-20T00:18:39;98988.50;;;0.87;96.11
43503;BME280;29098;48.184;16.298;2022-11-20T00:21:15;98984.13;;;0.88;95.96
43503;BME280;29098;48.184;16.298;2022-11-20T00:23:41;98989.06;;;0.91;96.23
43503;BME280;29098;48.184;16.298;2022-11-20T00:26:08;98995.22;;;0.90;95.73
43503;BME280;29098;48.184;16.298;2022-11-20T00:28:34;98994.38;;;0.89;95.41
43503;BME280;29098;48.184;16.298;2022-11-20T00:31:03;99000.13;;;0.93;95.10
43503;BME280;29098;48.184;16.298;2022-11-20T00:33:29;99007.81;;;0.94;94.92
43503;BME280;29098;48.184;16.298;2022-11-20T00:35:58;99004.88;;;0.88;95.57
43503;BME280;29098;48.184;16.298;2022-11-20T00:38:24;99012.66;;;0.88;96.77
43503;BME280;29098;48.184;16.298;2022-11-20T00:40:54;99012.66;;;0.88;98.04
43503;BME280;29098;48.184;16.298;2022-11-20T00:43:19;99013.81;;;0.95;98.06
43503;BME280;29098;48.184;16.298;2022-11-20T00:45:44;99013.94;;;0.93;97.32
43503;BME280;29098;48.184;16.298;2022-11-20T00:48:10;99023.22;;;0.96;96.51
43503;BME280;29098;48.184;16.298;2022-11-20T00:50:35;99037.63;;;1.00;96.89
43503;BME280;29098;48.184;16.298;2022-11-20T00:53:00;99024.38;;;1.03;96.31
43503;BME280;29098;48.184;16.298;2022-11-20T00:55:25;99039.13;;;1.03;94.06
43503;BME280;29098;48.184;16.298;2022-11-20T00:57:51;99041.41;;;0.96;94.42
43503;BME280;29098;48.184;16.298;2022-11-20T01:00:16;99041.22;;;0.88;92.95
43503;BME280;29098;48.184;16.298;2022-11-20T01:02:42;99040.47;;;0.97;92.58
43503;BME280;29098;48.184;16.298;2022-11-20T01:05:07;99036.47;;;0.93;92.65
43503;BME280;29098;48.184;16.298;2022-11-20T01:07:32;99038.88;;;0.85;92.24
43503;BME280;29098;48.184;16.298;2022-11-20T01:09:58;99040.22;;;0.79;92.68
43503;BME280;29098;48.184;16.298;2022-11-20T01:12:23;99041.59;;;0.83;93.33
43503;BME280;29098;48.184;16.298;2022-11-20T01:14:48;99045.78;;;0.74;94.99
43503;BME280;29098;48.184;16.298;2022-11-20T01:17:14;99041.66;;;0.72;94.71
43503;BME280;29098;48.184;16.298;2022-11-20T01:19:39;99042.94;;;0.77;97.30
43503;BME280;29098;48.184;16.298;2022-11-20T01:22:04;99039.50;;;0.77;95.18
43503;BME280;29098;48.184;16.298;2022-11-20T01:24:30;99039.38;;;0.78;94.18
43503;BME280;29098;48.184;16.298;2022-11-20T01:26:55;99043.00;;;0.66;94.84
43503;BME280;29098;48.184;16.298;2022-11-20T01:29:21;99030.84;;;0.66;95.73
43503;BME280;29098;48.184;16.298;2022-11-20T01:31:47;99032.66;;;0.76;95.29
43503;BME280;29098;48.184;16.298;2022-11-20T01:34:14;99035.03;;;0.79;96.43
43503;BME280;29098;48.184;16.298;2022-11-20T01:36:40;99034.69;;;0.72;97.72
43503;BME280;29098;48.184;16.298;2022-11-20T01:39:07;99040.72;;;0.73;99.16
43503;BME280;29098;48.184;16.298;2022-11-20T01:41:35;99035.25;;;0.76;99.38
43503;BME280;29098;48.184;16.298;2022-11-20T01:44:21;99028.94;;;0.68;99.12
43503;BME280;29098;48.184;16.298;2022-11-20T01:46:57;99033.44;;;0.66;99.46
43503;BME280;29098;48.184;16.298;2022-11-20T01:49:29;99024.19;;;0.74;98.96
43503;BME280;29098;48.184;16.298;2022-11-20T01:52:00;99019.13;;;0.72;99.65
43503;BME280;29098;48.184;16.298;2022-11-20T01:54:31;99016.69;;;0.71;100.00
43503;BME280;29098;48.184;16.298;2022-11-20T01:56:57;99029.66;;;0.71;100.00
43503;BME280;29098;48.184;16.298;2022-11-20T01:59:24;99034.66;;;0.84;100.00
43503;BME280;29098;48.184;16.298;2022-11-20T02:01:51;99037.44;;;0.71;100.00
43503;BME280;29098;48.184;16.298;2022-11-20T02:04:17;99042.09;;;0.77;100.00
43503;BME280;29098;48.184;16.298;2022-11-20T02:06:48;99039.16;;;0.81;100.00
43503;BME280;29098;48.184;16.298;2022-11-20T02:09:15;99036.56;;;0.81;100.00
43503;BME280;29098;48.184;16.298;2022-11-20T02:11:40;99041.56;;;0.73;100.00
43503;BME280;29098;48.184;16.298;2022-11-20T02:14:05;99043.19;;;0.74;100.00
43503;BME280;29098;48.184;16.298;2022-11-20T02:16:35;99044.69;;;0.77;100.00
43503;BME280;29098;48.184;16.298;2022-11-20T02:19:02;99044.88;;;0.64;100.00
43503;BME280;29098;48.184;16.298;2022-11-20T02:26:43;99040.25;;;0.67;100.00
43503;BME280;29098;48.184;16.298;2022-11-20T02:29:10;99040.91;;;0.81;100.00
43503;BME280;29098;48.184;16.298;2022-11-20T02:31:36;99049.75;;;0.78;100.00
43503;BME280;29098;48.184;16.298;2022-11-20T02:34:03;99044.56;;;0.78;100.00
43503;BME280;29098;48.184;16.298;2022-11-20T02:36:28;99039.38;;;0.78;100.00
43503;BME280;29098;48.184;16.298;2022-11-20T02:38:55;99040.78;;;0.82;100.00
43503;BME280;29098;48.184;16.298;2022-11-20T02:41:20;99035.03;;;0.79;100.00
43503;BME280;29098;48.184;16.298;2022-11-20T02:43:45;99040.72;;;0.94;100.00
43503;BME280;29098;48.184;16.298;2022-11-20T02:46:11;99036.03;;;0.88;100.00
43503;BME280;29098;48.184;16.298;2022-11-20T02:48:36;99037.13;;;0.85;99.22
43503;BME280;29098;48.184;16.298;2022-11-20T02:51:01;99037.25;;;0.84;98.34
43503;BME280;29098;48.184;16.298;2022-11-20T02:53:27;99035.53;;;0.94;98.19
43503;BME280;29098;48.184;16.298;2022-11-20T02:55:52;99038.63;;;0.88;97.77
43503;BME280;29098;48.184;16.298;2022-11-20T02:58:17;99031.59;;;1.00;97.90
43503;BME280;29098;48.184;16.298;2022-11-20T03:00:42;99022.13;;;0.89;97.24
43503;BME280;29098;48.184;16.298;2022-11-20T03:03:08;99028.31;;;0.98;98.87
43503;BME280;29098;48.184;16.298;2022-11-20T03:05:33;99023.94;;;0.98;99.11
43503;BME280;29098;48.184;16.298;2022-11-20T03:07:59;99015.03;;;0.91;100.00
43503;BME280;29098;48.184;16.298;2022-11-20T03:10:24;99009.56;;;0.94;100.00
43503;BME280;29098;48.184;16.298;2022-11-20T03:12:53;98991.72;;;0.79;100.00
43503;BME280;29098;48.184;16.298;2022-11-20T03:15:19;98991.91;;;0.88;100.00
43503;BME280;29098;48.184;16.298;2022-11-20T03:17:44;98986.69;;;0.78;100.00
43503;BME280;29098;48.184;16.298;2022-11-20T03:20:10;98992.00;;;0.76;100.00
43503;BME280;29098;48.184;16.298;2022-11-20T03:22:35;98994.59;;;0.76;100.00
43503;BME280;29098;48.184;16.298;2022-11-20T03:25:00;98989.66;;;0.73;100.00
43503;BME280;29098;48.184;16.298;2022-11-20T03:27:26;98986.13;;;0.74;100.00
43503;BME280;29098;48.184;16.298;2022-11-20T03:29:51;98983.69;;;0.82;100.00
43503;BME280;29098;48.184;16.298;2022-11-20T03:32:16;98978.38;;;0.63;100.00
43503;BME280;29098;48.184;16.298;2022-11-20T03:34:42;98983.00;;;0.59;100.00
43503;BME280;29098;48.184;16.298;2022-11-20T03:37:07;98983.91;;;0.70;100.00
43503;BME280;29098;48.184;16.298;2022-11-20T03:39:32;98981.88;;;0.73;100.00
43503;BME280;29098;48.184;16.298;2022-11-20T03:41:57;98986.63;;;0.68;100.00
43503;BME280;29098;48.184;16.298;2022-11-20T03:44:23;98982.50;;;0.65;100.00
43503;BME280;29098;48.184;16.298;2022-11-20T03:46:48;98991.81;;;0.68;100.00
43503;BME280;29098;48.184;16.298;2022-11-20T03:49:13;98979.53;;;0.70;100.00
43503;BME280;29098;48.184;16.298;2022-11-20T03:51:38;98977.56;;;0.62;100.00
43503;BME280;29098;48.184;16.298;2022-11-20T03:54:05;98990.41;;;0.64;100.00
43503;BME280;29098;48.184;16.298;2022-11-20T03:56:31;98977.03;;;0.68;100.00
43503;BME280;29098;48.184;16.298;2022-11-20T03:58:58;98974.03;;;0.63;100.00
43503;BME280;29098;48.184;16.298;2022-11-20T04:01:27;98979.41;;;0.72;100.00
43503;BME280;29098;48.184;16.298;2022-11-20T04:03:53;98979.78;;;0.67;100.00
43503;BME280;29098;48.184;16.298;2022-11-20T04:06:20;98971.56;;;0.62;100.00
43503;BME280;29098;48.184;16.298;2022-11-20T04:08:46;98967.06;;;0.64;100.00
43503;BME280;29098;48.184;16.298;2022-11-20T04:11:16;98970.78;;;0.71;100.00
43503;BME280;29098;48.184;16.298;2022-11-20T04:13:41;98970.22;;;0.67;100.00
43503;BME280;29098;48.184;16.298;2022-11-20T04:16:08;98965.59;;;0.71;100.00
43503;BME280;29098;48.184;16.298;2022-11-20T04:18:33;98963.44;;;0.76;100.00
43503;BME280;29098;48.184;16.298;2022-11-20T04:20:59;98956.16;;;0.70;100.00
43503;BME280;29098;48.184;16.298;2022-11-20T04:23:24;98953.38;;;0.62;100.00
43503;BME280;29098;48.184;16.298;2022-11-20T04:25:50;98953.56;;;0.70;100.00
43503;BME280;29098;48.184;16.298;2022-11-20T04:28:15;98955.72;;;0.65;100.00
43503;BME280;29098;48.184;16.298;2022-11-20T04:30:41;98957.06;;;0.59;100.00
43503;BME280;29098;48.184;16.298;2022-11-20T04:33:06;98953.56;;;0.70;100.00
43503;BME280;29098;48.184;16.298;2022-11-20T04:35:34;98938.56;;;0.74;100.00
43503;BME280;29098;48.184;16.298;2022-11-20T04:38:02;98941.06;;;0.75;100.00
43503;BME280;29098;48.184;16.298;2022-11-20T04:40:28;98932.59;;;0.73;100.00
43503;BME280;29098;48.184;16.298;2022-11-20T04:42:54;98935.28;;;0.72;100.00
43503;BME280;29098;48.184;16.298;2022-11-20T04:45:22;98921.75;;;0.68;100.00
43503;BME280;29098;48.184;16.298;2022-11-20T04:47:47;98924.28;;;0.58;100.00
43503;BME280;29098;48.184;16.298;2022-11-20T04:50:12;98918.03;;;0.61;100.00
43503;BME280;29098;48.184;16.298;2022-11-20T04:52:38;98913.06;;;0.58;100.00
43503;BME280;29098;48.184;16.298;2022-11-20T04:55:03;98906.06;;;0.48;100.00
43503;BME280;29098;48.184;16.298;2022-11-20T04:57:29;98915.81;;;0.56;100.00
43503;BME280;29098;48.184;16.298;2022-11-20T04:59:54;98911.63;;;0.65;100.00
43503;BME280;29098;48.184;16.298;2022-11-20T05:02:19;98908.84;;;0.57;100.00
43503;BME280;29098;48.184;16.298;2022-11-20T05:04:45;98911.19;;;0.60;100.00
43503;BME280;29098;48.184;16.298;2022-11-20T05:07:10;98915.16;;;0.64;100.00
43503;BME280;29098;48.184;16.298;2022-11-20T05:09:35;98912.19;;;0.68;100.00
43503;BME280;29098;48.184;16.298;2022-11-20T05:12:00;98914.53;;;0.72;100.00
43503;BME280;29098;48.184;16.298;2022-11-20T05:14:26;98914.41;;;0.73;100.00
43503;BME280;29098;48.184;16.298;2022-11-20T05:16:51;98910.72;;;0.76;100.00
43503;BME280;29098;48.184;16.298;2022-11-20T05:19:16;98918.66;;;0.74;100.00
43503;BME280;29098;48.184;16.298;2022-11-20T05:21:41;98924.09;;;0.71;100.00
43503;BME280;29098;48.184;16.298;2022-11-20T05:24:07;98923.84;;;0.74;100.00
43503;BME280;29098;48.184;16.298;2022-11-20T05:26:32;98927.38;;;0.73;100.00
43503;BME280;29098;48.184;16.298;2022-11-20T05:28:57;98930.41;;;0.78;100.00
43503;BME280;29098;48.184;16.298;2022-11-20T05:31:23;98928.94;;;0.86;100.00
43503;BME280;29098;48.184;16.298;2022-11-20T05:33:49;98930.84;;;0.84;100.00
43503;BME280;29098;48.184;16.298;2022-11-20T05:36:14;98939.13;;;0.77;100.00
43503;BME280;29098;48.184;16.298;2022-11-20T05:38:40;98940.28;;;0.85;100.00
43503;BME280;29098;48.184;16.298;2022-11-20T05:41:10;98944.28;;;0.89;100.00
43503;BME280;29098;48.184;16.298;2022-11-20T05:43:35;98936.47;;;0.89;100.00
43503;BME280;29098;48.184;16.298;2022-11-20T05:46:01;98937.22;;;1.01;100.00
43503;BME280;29098;48.184;16.298;2022-11-20T05:48:27;98937.34;;;0.99;100.00
43503;BME280;29098;48.184;16.298;2022-11-20T05:50:52;98940.63;;;1.01;100.00
43503;BME280;29098;48.184;16.298;2022-11-20T05:53:17;98939.81;;;1.01;98.64
43503;BME280;29098;48.184;16.298;2022-11-20T05:55:43;98940.63;;;1.01;99.32
43503;BME280;29098;48.184;16.298;2022-11-20T05:58:08;98945.00;;;1.01;100.00
43503;BME280;29098;48.184;16.298;2022-11-20T06:00:33;98942.25;;;1.02;100.00
43503;BME280;29098;48.184;16.298;2022-11-20T06:02:59;98945.00;;;1.01;100.00
43503;BME280;29098;48.184;16.298;2022-11-20T06:05:24;98946.50;;;1.03;100.00
43503;BME280;29098;48.184;16.298;2022-11-20T06:07:49;98947.88;;;1.07;100.00
43503;BME280;29098;48.184;16.298;2022-11-20T06:10:15;98948.56;;;1.09;100.00
43503;BME280;29098;48.184;16.298;2022-11-20T06:12:40;98945.28;;;1.07;100.00
43503;BME280;29098;48.184;16.298;2022-11-20T06:15:05;98949.66;;;1.07;100.00
43503;BME280;29098;48.184;16.298;2022-11-20T06:17:31;98952.63;;;1.02;100.00
43503;BME280;29098;48.184;16.298;2022-11-20T06:19:56;98952.91;;;0.99;100.00
43503;BME280;29098;48.184;16.298;2022-11-20T06:22:21;98957.03;;;1.12;100.00
43503;BME280;29098;48.184;16.298;2022-11-20T06:24:47;98955.28;;;1.12;100.00
43503;BME280;29098;48.184;16.298;2022-11-20T06:27:12;98948.34;;;1.13;100.00
43503;BME280;29098;48.184;16.298;2022-11-20T06:29:37;98965.94;;;1.09;100.00
43503;BME280;29098;48.184;16.298;2022-11-20T06:32:02;98960.44;;;1.02;100.00
43503;BME280;29098;48.184;16.298;2022-11-20T06:34:28;98977.53;;;1.05;100.00
43503;BME280;29098;48.184;16.298;2022-11-20T06:36:53;98974.81;;;1.06;100.00
43503;BME280;29098;48.184;16.298;2022-11-20T06:39:18;98972.63;;;1.12;100.00
43503;BME280;29098;48.184;16.298;2022-11-20T06:41:44;98975.59;;;1.07;100.00
43503;BME280;29098;48.184;16.298;2022-11-20T06:44:09;98985.88;;;1.08;100.00
43503;BME280;29098;48.184;16.298;2022-11-20T06:46:34;98982.75;;;1.15;100.00
43503;BME280;29098;48.184;16.298;2022-11-20T06:48:59;98989.59;;;1.16;100.00
43503;BME280;29098;48.184;16.298;2022-11-20T06:51:25;98997.91;;;1.09;100.00
43503;BME280;29098;48.184;16.298;2022-11-20T06:53:50;98991.25;;;1.17;100.00
43503;BME280;29098;48.184;16.298;2022-11-20T06:56:15;98992.59;;;1.11;100.00
43503;BME280;29098;48.184;16.298;2022-11-20T06:58:40;99002.53;;;1.06;100.00
43503;BME280;29098;48.184;16.298;2022-11-20T07:01:10;99006.66;;;1.08;100.00
43503;BME280;29098;48.184;16.298;2022-11-20T07:03:36;99008.16;;;1.11;100.00
43503;BME280;29098;48.184;16.298;2022-11-20T07:06:01;99011.44;;;1.13;100.00
43503;BME280;29098;48.184;16.298;2022-11-20T07:08:27;99006.66;;;1.08;100.00
43503;BME280;29098;48.184;16.298;2022-11-20T07:10:56;99005.00;;;1.07;100.00
43503;BME280;29098;48.184;16.298;2022-11-20T07:13:22;99006.25;;;1.13;100.00
43503;BME280;29098;48.184;16.298;2022-11-20T07:15:47;99010.94;;;1.19;100.00
43503;BME280;29098;48.184;16.298;2022-11-20T07:18:12;99021.72;;;1.15;100.00
43503;BME280;29098;48.184;16.298;2022-11-20T07:20:37;99013.91;;;1.15;100.00
43503;BME280;29098;48.184;16.298;2022-11-20T07:23:03;99014.28;;;1.31;100.00
43503;BME280;29098;48.184;16.298;2022-11-20T07:25:28;99017.66;;;1.22;100.00
43503;BME280;29098;48.184;16.298;2022-11-20T07:28:00;99020.31;;;1.11;100.00
43503;BME280;29098;48.184;16.298;2022-11-20T07:30:26;99018.50;;;1.01;100.00
43503;BME280;29098;48.184;16.298;2022-11-20T07:32:51;99020.06;;;1.14;100.00
43503;BME280;29098;48.184;16.298;2022-11-20T07:35:17;99023.47;;;1.14;100.00
43503;BME280;29098;48.184;16.298;2022-11-20T07:37:42;99030.38;;;1.25;100.00
43503;BME280;29098;48.184;16.298;2022-11-20T07:40:08;99023.06;;;1.09;100.00
43503;BME280;29098;48.184;16.298;2022-11-20T07:42:33;99026.78;;;1.16;100.00
43503;BME280;29098;48.184;16.298;2022-11-20T07:44:59;99030.88;;;1.19;100.00
43503;BME280;29098;48.184;16.298;2022-11-20T07:47:24;99031.41;;;1.13;100.00
43503;BME280;29098;48.184;16.298;2022-11-20T07:49:49;99030.28;;;1.05;100.00
43503;BME280;29098;48.184;16.298;2022-11-20T07:52:15;99042.94;;;1.20;100.00
43503;BME280;29098;48.184;16.298;2022-11-20T07:54:40;99041.47;;;1.27;100.00
43503;BME280;29098;48.184;16.298;2022-11-20T07:57:05;99046.84;;;1.45;100.00
43503;BME280;29098;48.184;16.298;2022-11-20T07:59:31;99036.81;;;1.62;100.00
43503;BME280;29098;48.184;16.298;2022-11-20T08:01:56;99050.09;;;1.69;100.00
43503;BME280;29098;48.184;16.298;2022-11-20T08:04:21;99034.88;;;1.54;100.00
43503;BME280;29098;48.184;16.298;2022-11-20T08:06:48;99034.59;;;1.57;100.00
43503;BME280;29098;48.184;16.298;2022-11-20T08:09:13;99039.22;;;1.54;100.00
43503;BME280;29098;48.184;16.298;2022-11-20T08:11:39;99038.94;;;1.47;100.00
43503;BME280;29098;48.184;16.298;2022-11-20T08:14:22;99037.88;;;1.49;100.00
43503;BME280;29098;48.184;16.298;2022-11-20T08:16:48;99034.44;;;1.49;100.00
43503;BME280;29098;48.184;16.298;2022-11-20T08:19:14;99050.84;;;1.49;100.00
43503;BME280;29098;48.184;16.298;2022-11-20T08:21:40;99044.44;;;1.54;100.00
43503;BME280;29098;48.184;16.298;2022-11-20T08:24:06;99043.06;;;1.49;100.00
43503;BME280;29098;48.184;16.298;2022-11-20T08:26:31;99046.72;;;1.47;100.00
43503;BME280;29098;48.184;16.298;2022-11-20T08:28:57;99049.22;;;1.48;100.00
43503;BME280;29098;48.184;16.298;2022-11-20T08:31:23;99048.19;;;1.40;100.00
43503;BME280;29098;48.184;16.298;2022-11-20T08:33:49;99046.84;;;1.45;100.00
43503;BME280;29098;48.184;16.298;2022-11-20T08:36:14;99049.28;;;1.37;100.00
43503;BME280;29098;48.184;16.298;2022-11-20T08:38:40;99052.63;;;1.49;100.00
43503;BME280;29098;48.184;16.298;2022-11-20T08:41:05;99040.34;;;1.51;100.00
43503;BME280;29098;48.184;16.298;2022-11-20T08:43:49;99050.28;;;1.46;100.00
43503;BME280;29098;48.184;16.298;2022-11-20T08:46:14;99047.22;;;1.62;100.00
43503;BME280;29098;48.184;16.298;2022-11-20T08:48:40;99057.25;;;1.45;100.00
43503;BME280;29098;48.184;16.298;2022-11-20T08:51:05;99051.38;;;1.43;100.00
43503;BME280;29098;48.184;16.298;2022-11-20T08:53:30;99047.91;;;1.33;100.00
43503;BME280;29098;48.184;16.298;2022-11-20T08:55:56;99054.56;;;1.57;100.00
43503;BME280;29098;48.184;16.298;2022-11-20T08:58:22;99053.66;;;1.36;100.00
43503;BME280;29098;48.184;16.298;2022-11-20T09:00:47;99047.75;;;1.56;100.00
43503;BME280;29098;48.184;16.298;2022-11-20T09:03:13;99047.59;;;1.57;100.00
43503;BME280;29098;48.184;16.298;2022-11-20T09:05:38;99030.28;;;1.68;100.00
43503;BME280;29098;48.184;16.298;2022-11-20T09:08:04;99037.69;;;1.82;100.00
43503;BME280;29098;48.184;16.298;2022-11-20T09:10:29;99041.94;;;1.83;100.00
43503;BME280;29098;48.184;16.298;2022-11-20T09:12:54;99040.97;;;1.84;100.00
43503;BME280;29098;48.184;16.298;2022-11-20T09:15:20;99037.69;;;1.92;100.00
43503;BME280;29098;48.184;16.298;2022-11-20T09:18:04;99041.00;;;1.94;100.00
43503;BME280;29098;48.184;16.298;2022-11-20T09:20:30;99036.47;;;1.86;100.00
43503;BME280;29098;48.184;16.298;2022-11-20T09:22:55;99039.75;;;1.88;100.00
43503;BME280;29098;48.184;16.298;2022-11-20T09:25:21;99034.75;;;1.66;100.00
43503;BME280;29098;48.184;16.298;2022-11-20T09:27:46;99030.28;;;1.68;100.00
43503;BME280;29098;48.184;16.298;2022-11-20T09:30:15;99030.13;;;1.59;100.00
43503;BME280;29098;48.184;16.298;2022-11-20T09:32:40;99021.19;;;1.52;100.00
43503;BME280;29098;48.184;16.298;2022-11-20T09:35:06;99027.41;;;1.71;100.00
43503;BME280;29098;48.184;16.298;2022-11-20T09:37:31;99029.44;;;1.67;100.00
43503;BME280;29098;48.184;16.298;2022-11-20T09:39:56;99030.31;;;1.77;100.00
43503;BME280;29098;48.184;16.298;2022-11-20T09:42:27;99037.41;;;1.75;100.00
43503;BME280;29098;48.184;16.298;2022-11-20T09:50:02;99033.56;;;1.70;100.00
43503;BME280;29098;48.184;16.298;2022-11-20T09:55:10;99022.09;;;1.82;100.00
43503;BME280;29098;48.184;16.298;2022-11-20T09:57:37;99018.41;;;1.75;100.00
43503;BME280;29098;48.184;16.298;2022-11-20T10:00:06;99020.28;;;1.73;100.00
43503;BME280;29098;48.184;16.298;2022-11-20T10:02:47;99014.25;;;1.62;100.00
43503;BME280;29098;48.184;16.298;2022-11-20T10:07:50;99004.66;;;1.53;100.00
43503;BME280;29098;48.184;16.298;2022-11-20T10:15:41;98997.22;;;1.89;100.00
43503;BME280;29098;48.184;16.298;2022-11-20T10:18:34;99004.34;;;1.97;100.00
43503;BME280;29098;48.184;16.298;2022-11-20T10:26:17;98998.16;;;1.88;100.00
43503;BME280;29098;48.184;16.298;2022-11-20T10:29:10;98993.50;;;1.92;100.00
43503;BME280;29098;48.184;16.298;2022-11-20T10:31:39;98996.94;;;1.92;100.00
43503;BME280;29098;48.184;16.298;2022-11-20T10:34:07;98991.78;;;2.12;100.00
43503;BME280;29098;48.184;16.298;2022-11-20T10:36:42;98996.97;;;2.12;100.00
43503;BME280;29098;48.184;16.298;2022-11-20T10:41:52;98996.53;;;1.97;100.00
43503;BME280;29098;48.184;16.298;2022-11-20T10:44:22;98993.66;;;1.90;100.00
43503;BME280;29098;48.184;16.298;2022-11-20T10:47:16;98991.78;;;2.12;100.00
43503;BME280;29098;48.184;16.298;2022-11-20T10:49:46;98995.59;;;2.08;100.00
43503;BME280;29098;48.184;16.298;2022-11-20T10:57:47;98986.28;;;2.55;100.00
43503;BME280;29098;48.184;16.298;2022-11-20T11:00:14;98986.53;;;2.62;100.00
43503;BME280;29098;48.184;16.298;2022-11-20T11:05:12;98976.09;;;2.91;100.00
43503;BME280;29098;48.184;16.298;2022-11-20T11:07:39;98976.09;;;2.91;100.00
43503;BME280;29098;48.184;16.298;2022-11-20T11:10:31;98970.78;;;2.83;100.00
43503;BME280;29098;48.184;16.298;2022-11-20T11:12:51;98972.81;;;2.89;100.00
43503;BME280;29098;48.184;16.298;2022-11-20T11:17:51;98972.53;;;2.92;100.00
43503;BME280;29098;48.184;16.298;2022-11-20T11:20:20;98963.06;;;2.91;100.00
43503;BME280;29098;48.184;16.298;2022-11-20T11:22:47;98965.91;;;2.98;100.00
43503;BME280;29098;48.184;16.298;2022-11-20T11:25:20;98959.03;;;3.07;100.00
43503;BME280;29098;48.184;16.298;2022-11-20T11:27:46;98958.50;;;3.03;100.00
43503;BME280;29098;48.184;16.298;2022-11-20T11:30:13;98960.28;;;3.03;100.00
43503;BME280;29098;48.184;16.298;2022-11-20T11:32:39;98961.81;;;2.95;100.00
43503;BME280;29098;48.184;16.298;2022-11-20T11:35:05;98953.47;;;2.92;100.00
43503;BME280;29098;48.184;16.298;2022-11-20T11:37:35;98961.81;;;2.95;100.00
43503;BME280;29098;48.184;16.298;2022-11-20T11:40:03;98959.59;;;3.00;100.00
43503;BME280;29098;48.184;16.298;2022-11-20T11:42:29;98963.19;;;2.99;100.00
43503;BME280;29098;48.184;16.298;2022-11-20T11:44:56;98952.28;;;3.24;100.00
43503;BME280;29098;48.184;16.298;2022-11-20T11:56:02;98943.84;;;4.49;98.12
43503;BME280;29098;48.184;16.298;2022-11-20T11:58:09;98939.16;;;4.79;97.62
43503;BME280;29098;48.184;16.298;2022-11-20T12:00:36;98933.03;;;4.97;94.21
43503;BME280;29098;48.184;16.298;2022-11-20T12:05:40;98923.75;;;4.94;93.97
43503;BME280;29098;48.184;16.298;2022-11-20T12:08:15;98929.00;;;5.45;92.83
43503;BME280;29098;48.184;16.298;2022-11-20T12:11:00;98928.78;;;5.90;90.71
43503;BME280;29098;48.184;16.298;2022-11-20T12:16:10;98916.06;;;6.20;85.80
43503;BME280;29098;48.184;16.298;2022-11-20T12:18:36;98920.47;;;6.03;86.88
43503;BME280;29098;48.184;16.298;2022-11-20T12:23:34;98923.94;;;6.20;86.09
43503;BME280;29098;48.184;16.298;2022-11-20T12:26:03;98928.81;;;6.15;85.78
43503;BME280;29098;48.184;16.298;2022-11-20T12:28:35;98925.06;;;6.26;86.22
43503;BME280;29098;48.184;16.298;2022-11-20T12:33:53;98927.69;;;6.34;86.02
43503;BME280;29098;48.184;16.298;2022-11-20T12:36:32;98922.59;;;6.33;87.93
43503;BME280;29098;48.184;16.298;2022-11-20T12:44:57;98917.84;;;5.35;88.86
43503;BME280;29098;48.184;16.298;2022-11-20T12:50:23;98912.13;;;4.97;91.52
43503;BME280;29098;48.184;16.298;2022-11-20T12:52:55;98907.81;;;5.14;91.95
43503;BME280;29098;48.184;16.298;2022-11-20T13:00:34;98898.41;;;5.29;93.47
43503;BME280;29098;48.184;16.298;2022-11-20T13:05:48;98895.25;;;5.85;90.30
43503;BME280;29098;48.184;16.298;2022-11-20T13:08:25;98896.41;;;5.91;88.12
43503;BME280;29098;48.184;16.298;2022-11-20T13:13:21;98888.38;;;5.93;89.18
43503;BME280;29098;48.184;16.298;2022-11-20T13:15:56;98891.81;;;5.93;89.73
43503;BME280;29098;48.184;16.298;2022-11-20T13:18:25;98888.84;;;5.80;91.36
43503;BME280;29098;48.184;16.298;2022-11-20T13:20:51;98882.34;;;5.75;91.37
43503;BME280;29098;48.184;16.298;2022-11-20T13:23:24;98884.63;;;5.79;90.94
43503;BME280;29098;48.184;16.298;2022-11-20T13:25:50;98890.09;;;5.42;91.83
43503;BME280;29098;48.184;16.298;2022-11-20T13:30:50;98884.06;;;5.42;94.29
43503;BME280;29098;48.184;16.298;2022-11-20T13:33:27;98888.16;;;5.44;95.55
43503;BME280;29098;48.184;16.298;2022-11-20T13:36:00;98884.22;;;5.40;94.09
43503;BME280;29098;48.184;16.298;2022-11-20T13:38:26;98884.19;;;5.32;94.88
43503;BME280;29098;48.184;16.298;2022-11-20T13:40:56;98879.94;;;5.31;96.27
43503;BME280;29098;48.184;16.298;2022-11-20T13:43:23;98883.22;;;5.33;95.28
43503;BME280;29098;48.184;16.298;2022-11-20T13:46:02;98878.69;;;5.43;95.13
43503;BME280;29098;48.184;16.298;2022-11-20T13:48:32;98874.88;;;5.29;94.90
43503;BME280;29098;48.184;16.298;2022-11-20T13:51:44;98874.72;;;5.31;95.37
43503;BME280;29098;48.184;16.298;2022-11-20T14:01:21;98863.63;;;5.37;96.47
43503;BME280;29098;48.184;16.298;2022-11-20T14:03:48;98869.50;;;5.39;96.43
43503;BME280;29098;48.184;16.298;2022-11-20T14:06:16;98871.50;;;5.45;95.31
43503;BME280;29098;48.184;16.298;2022-11-20T14:08:47;98857.09;;;5.49;95.02
43503;BME280;29098;48.184;16.298;2022-11-20T14:11:23;98870.50;;;5.46;96.21
43503;BME280;29098;48.184;16.298;2022-11-20T14:13:57;98861.34;;;5.42;96.76
43503;BME280;29098;48.184;16.298;2022-11-20T14:16:23;98862.34;;;5.58;97.61
43503;BME280;29098;48.184;16.298;2022-11-20T14:18:48;98862.69;;;5.63;96.93
43503;BME280;29098;48.184;16.298;2022-11-20T14:21:24;98862.03;;;5.61;96.01